sensor_id;sensor_type;location;lat;lon;timestamp;pressure;altitude;pressure_sealevel;temperature;humidity
41102;BME280;26845;50.190;19.178;2022-12-29T00:00:20;98735.98;;;3.27;71.68
41102;BME280;26845;50.190;19.178;2022-12-29T00:02:47;98727.73;;;3.25;71.72
41102;BME280;26845;50.190;19.178;2022-12-29T00:05:14;98717.80;;;3.21;71.84
41102;BME280;26845;50.190;19.178;2022-12-29T00:07:41;98712.33;;;3.26;72.08
41102;BME280;26845;50.190;19.178;2022-12-29T00:10:08;98703.84;;;3.30;72.29
41102;BME280;26845;50.190;19.178;2022-12-29T00:12:35;98699.98;;;3.31;71.90
41102;BME280;26845;50.190;19.178;2022-12-29T00:15:22;98703.01;;;3.35;72.06
41102;BME280;26845;50.190;19.178;2022-12-29T00:18:05;98709.60;;;3.31;72.25
41102;BME280;26845;50.190;19.178;2022-12-29T00:20:35;98706.03;;;3.28;72.10
41102;BME280;26845;50.190;19.178;2022-12-29T00:23:24;98712.61;;;3.22;72.17
41102;BME280;26845;50.190;19.178;2022-12-29T00:26:13;98706.29;;;3.19;72.09
41102;BME280;26845;50.190;19.178;2022-12-29T00:29:00;98708.47;;;3.17;72.18
41102;BME280;26845;50.190;19.178;2022-12-29T00:31:46;98710.38;;;3.11;72.20
41102;BME280;26845;50.190;19.178;2022-12-29T00:34:31;98703.53;;;3.17;72.41
41102;BME280;26845;50.190;19.178;2022-12-29T00:37:18;98704.91;;;3.17;72.44
41102;BME280;26845;50.190;19.178;2022-12-29T00:39:47;98698.06;;;3.22;72.57
41102;BME280;26845;50.190;19.178;2022-12-29T00:42:33;98694.47;;;3.24;72.39
41102;BME280;26845;50.190;19.178;2022-12-29T00:45:18;98692.30;;;3.28;72.46
41102;BME280;26845;50.190;19.178;2022-12-29T00:47:45;98684.61;;;3.28;72.51
41102;BME280;26845;50.190;19.178;2022-12-29T00:50:12;98684.61;;;3.28;72.59
41102;BME280;26845;50.190;19.178;2022-12-29T00:52:38;98681.30;;;3.28;72.64
41102;BME280;26845;50.190;19.178;2022-12-29T00:55:08;98679.09;;;3.20;72.62
41102;BME280;26845;50.190;19.178;2022-12-29T00:57:35;98672.22;;;3.18;72.65
41102;BME280;26845;50.190;19.178;2022-12-29T01:00:02;98666.44;;;3.11;72.60
41102;BME280;26845;50.190;19.178;2022-12-29T01:02:29;98668.63;;;3.12;72.92
41102;BME280;26845;50.190;19.178;2022-12-29T01:04:56;98671.91;;;3.06;72.95
41102;BME280;26845;50.190;19.178;2022-12-29T01:07:23;98667.52;;;3.03;73.12
41102;BME280;26845;50.190;19.178;2022-12-29T01:09:50;98664.23;;;3.06;72.75
41102;BME280;26845;50.190;19.178;2022-12-29T01:12:35;98665.31;;;3.00;72.90
41102;BME280;26845;50.190;19.178;2022-12-29T01:15:10;98671.05;;;2.96;72.74
41102;BME280;26845;50.190;19.178;2022-12-29T01:17:39;98661.72;;;2.89;72.63
41102;BME280;26845;50.190;19.178;2022-12-29T01:20:07;98669.11;;;2.83;72.61
41102;BME280;26845;50.190;19.178;2022-12-29T01:22:34;98668.29;;;2.83;72.70
41102;BME280;26845;50.190;19.178;2022-12-29T01:25:01;98673.50;;;2.87;72.83
41102;BME280;26845;50.190;19.178;2022-12-29T01:27:29;98676.55;;;2.88;72.85
41102;BME280;26845;50.190;19.178;2022-12-29T01:29:56;98671.35;;;2.97;73.18
41102;BME280;26845;50.190;19.178;2022-12-29T01:32:23;98676.32;;;3.05;73.22
41102;BME280;26845;50.190;19.178;2022-12-29T01:34:50;98664.21;;;3.01;73.05
41102;BME280;26845;50.190;19.178;2022-12-29T01:37:17;98650.78;;;3.02;73.20
41102;BME280;26845;50.190;19.178;2022-12-29T01:39:45;98651.61;;;3.05;73.27
41102;BME280;26845;50.190;19.178;2022-12-29T01:42:18;98650.77;;;3.07;73.18
41102;BME280;26845;50.190;19.178;2022-12-29T01:44:57;98649.39;;;3.07;72.88
41102;BME280;26845;50.190;19.178;2022-12-29T01:50:26;98645.56;;;3.18;73.00
41102;BME280;26845;50.190;19.178;2022-12-29T01:53:04;98646.69;;;3.20;72.56
41102;BME280;26845;50.190;19.178;2022-12-29T01:55:39;98650.23;;;3.15;72.63
41102;BME280;26845;50.190;19.178;2022-12-29T01:58:05;98654.63;;;3.11;72.49
41102;BME280;26845;50.190;19.178;2022-12-29T02:00:33;98663.42;;;3.10;72.30
41102;BME280;26845;50.190;19.178;2022-12-29T02:03:00;98665.33;;;3.10;72.45
41102;BME280;26845;50.190;19.178;2022-12-29T02:05:33;98662.03;;;3.05;72.19
41102;BME280;26845;50.190;19.178;2022-12-29T02:08:16;98659.83;;;3.00;72.01
41102;BME280;26845;50.190;19.178;2022-12-29T02:10:44;98656.53;;;3.00;72.63
41102;BME280;26845;50.190;19.178;2022-12-29T02:13:11;98654.04;;;2.99;72.07
41102;BME280;26845;50.190;19.178;2022-12-29T02:24:14;98633.16;;;2.92;72.76
41102;BME280;26845;50.190;19.178;2022-12-29T02:33:07;98620.56;;;2.97;73.05
41102;BME280;26845;50.190;19.178;2022-12-29T02:35:48;98620.81;;;2.92;72.76
41102;BME280;26845;50.190;19.178;2022-12-29T02:44:24;98620.81;;;2.92;72.83
41102;BME280;26845;50.190;19.178;2022-12-29T02:46:58;98608.19;;;2.91;73.06
41102;BME280;26845;50.190;19.178;2022-12-29T02:52:22;98619.73;;;2.93;73.00
41102;BME280;26845;50.190;19.178;2022-12-29T02:54:55;98616.42;;;2.89;72.95
41102;BME280;26845;50.190;19.178;2022-12-29T03:00:06;98628.22;;;2.82;73.02
41102;BME280;26845;50.190;19.178;2022-12-29T03:13:44;98610.05;;;2.63;73.06
41102;BME280;26845;50.190;19.178;2022-12-29T03:16:34;98598.50;;;2.61;73.05
41102;BME280;26845;50.190;19.178;2022-12-29T03:19:23;98610.59;;;2.60;73.41
41102;BME280;26845;50.190;19.178;2022-12-29T03:21:57;98621.27;;;2.59;73.61
41102;BME280;26845;50.190;19.178;2022-12-29T03:24:51;98610.59;;;2.60;73.78
41102;BME280;26845;50.190;19.178;2022-12-29T03:27:23;98610.59;;;2.60;73.78
41102;BME280;26845;50.190;19.178;2022-12-29T03:30:06;98603.73;;;2.62;73.45
41102;BME280;26845;50.190;19.178;2022-12-29T03:33:10;98597.98;;;2.69;73.57
41102;BME280;26845;50.190;19.178;2022-12-29T03:35:17;98594.98;;;2.70;73.46
41102;BME280;26845;50.190;19.178;2022-12-29T03:38:09;98594.98;;;2.70;73.35
41102;BME280;26845;50.190;19.178;2022-12-29T03:40:32;98598.26;;;2.73;73.41
41102;BME280;26845;50.190;19.178;2022-12-29T03:43:02;98605.67;;;2.72;73.39
41102;BME280;26845;50.190;19.178;2022-12-29T03:45:29;98603.75;;;2.75;73.58
41102;BME280;26845;50.190;19.178;2022-12-29T03:47:56;98599.94;;;2.76;73.51
41102;BME280;26845;50.190;19.178;2022-12-29T03:50:23;98605.94;;;2.73;73.35
41102;BME280;26845;50.190;19.178;2022-12-29T03:52:50;98615.27;;;2.69;73.26
41102;BME280;26845;50.190;19.178;2022-12-29T03:55:17;98608.67;;;2.63;73.34
41102;BME280;26845;50.190;19.178;2022-12-29T03:57:43;98587.83;;;2.62;73.41
41102;BME280;26845;50.190;19.178;2022-12-29T04:00:14;98595.80;;;2.71;73.52
41102;BME280;26845;50.190;19.178;2022-12-29T04:02:40;98593.33;;;2.75;73.46
41102;BME280;26845;50.190;19.178;2022-12-29T04:05:07;98580.42;;;2.75;73.44
41102;BME280;26845;50.190;19.178;2022-12-29T04:07:34;98577.98;;;2.76;73.70
41102;BME280;26845;50.190;19.178;2022-12-29T04:10:01;98574.39;;;2.76;73.64
41102;BME280;26845;50.190;19.178;2022-12-29T04:12:28;98570.26;;;2.73;73.66
41102;BME280;26845;50.190;19.178;2022-12-29T04:14:55;98570.82;;;2.75;73.79
41102;BME280;26845;50.190;19.178;2022-12-29T04:17:22;98571.39;;;2.80;73.87
41102;BME280;26845;50.190;19.178;2022-12-29T04:19:49;98565.63;;;2.84;73.79
41102;BME280;26845;50.190;19.178;2022-12-29T04:22:17;98543.41;;;2.85;73.75
41102;BME280;26845;50.190;19.178;2022-12-29T04:24:44;98539.28;;;2.85;73.86
41102;BME280;26845;50.190;19.178;2022-12-29T04:27:11;98542.02;;;2.83;73.91
41102;BME280;26845;50.190;19.178;2022-12-29T04:29:38;98547.25;;;2.82;73.86
41102;BME280;26845;50.190;19.178;2022-12-29T04:32:05;98546.95;;;2.81;73.92
41102;BME280;26845;50.190;19.178;2022-12-29T04:34:31;98545.03;;;2.81;74.02
41102;BME280;26845;50.190;19.178;2022-12-29T04:36:58;98543.95;;;2.82;74.02
41102;BME280;26845;50.190;19.178;2022-12-29T04:39:25;98545.03;;;2.84;74.14
41102;BME280;26845;50.190;19.178;2022-12-29T04:41:52;98541.73;;;2.84;74.07
41102;BME280;26845;50.190;19.178;2022-12-29T04:44:19;98535.97;;;2.81;73.98
41102;BME280;26845;50.190;19.178;2022-12-29T04:46:45;98539.02;;;2.82;74.12
41102;BME280;26845;50.190;19.178;2022-12-29T04:49:12;98540.64;;;2.80;74.23
41102;BME280;26845;50.190;19.178;2022-12-29T04:51:39;98541.73;;;2.72;73.86
41102;BME280;26845;50.190;19.178;2022-12-29T04:54:06;98538.95;;;2.59;73.61
41102;BME280;26845;50.190;19.178;2022-12-29T04:56:33;98536.18;;;2.43;73.70
41102;BME280;26845;50.190;19.178;2022-12-29T04:59:00;98536.98;;;2.39;73.67
41102;BME280;26845;50.190;19.178;2022-12-29T05:01:26;98536.44;;;2.34;73.86
41102;BME280;26845;50.190;19.178;2022-12-29T05:03:53;98532.88;;;2.36;74.10
41102;BME280;26845;50.190;19.178;2022-12-29T05:06:20;98529.59;;;2.44;74.33
41102;BME280;26845;50.190;19.178;2022-12-29T05:08:47;98535.66;;;2.52;74.34
41102;BME280;26845;50.190;19.178;2022-12-29T05:11:14;98536.47;;;2.52;74.29
41102;BME280;26845;50.190;19.178;2022-12-29T05:13:41;98538.40;;;2.52;74.39
41102;BME280;26845;50.190;19.178;2022-12-29T05:16:11;98536.22;;;2.54;74.50
41102;BME280;26845;50.190;19.178;2022-12-29T05:18:38;98535.92;;;2.53;74.37
41102;BME280;26845;50.190;19.178;2022-12-29T05:21:05;98530.43;;;2.42;74.07
41102;BME280;26845;50.190;19.178;2022-12-29T05:23:32;98530.43;;;2.42;74.07
41102;BME280;26845;50.190;19.178;2022-12-29T05:25:59;98534.78;;;2.36;74.33
41102;BME280;26845;50.190;19.178;2022-12-29T05:28:26;98527.37;;;2.29;74.33
41102;BME280;26845;50.190;19.178;2022-12-29T05:30:52;98527.37;;;2.29;74.33
41102;BME280;26845;50.190;19.178;2022-12-29T05:33:19;98521.61;;;2.25;74.45
41102;BME280;26845;50.190;19.178;2022-12-29T05:35:48;98528.97;;;2.22;74.43
41102;BME280;26845;50.190;19.178;2022-12-29T05:38:15;98523.77;;;2.18;74.53
41102;BME280;26845;50.190;19.178;2022-12-29T05:40:45;98533.91;;;2.17;74.52
41102;BME280;26845;50.190;19.178;2022-12-29T05:43:11;98535.80;;;2.09;74.49
41102;BME280;26845;50.190;19.178;2022-12-29T05:45:38;98539.34;;;2.07;74.51
41102;BME280;26845;50.190;19.178;2022-12-29T05:48:05;98534.14;;;2.06;74.68
41102;BME280;26845;50.190;19.178;2022-12-29T05:50:34;98533.30;;;2.00;74.55
41102;BME280;26845;50.190;19.178;2022-12-29T05:53:01;98519.30;;;1.94;74.68
41102;BME280;26845;50.190;19.178;2022-12-29T05:55:32;98519.58;;;1.97;74.77
41102;BME280;26845;50.190;19.178;2022-12-29T05:57:56;98516.55;;;1.94;74.87
41102;BME280;26845;50.190;19.178;2022-12-29T06:00:24;98517.91;;;1.91;74.93
41102;BME280;26845;50.190;19.178;2022-12-29T06:02:51;98522.24;;;1.85;74.68
41102;BME280;26845;50.190;19.178;2022-12-29T06:05:18;98522.96;;;1.65;74.60
41102;BME280;26845;50.190;19.178;2022-12-29T06:07:45;98522.42;;;1.63;75.08
41102;BME280;26845;50.190;19.178;2022-12-29T06:10:12;98518.00;;;1.59;75.16
41102;BME280;26845;50.190;19.178;2022-12-29T06:12:39;98518.00;;;1.59;75.26
41102;BME280;26845;50.190;19.178;2022-12-29T06:15:06;98515.52;;;1.55;75.16
41102;BME280;26845;50.190;19.178;2022-12-29T06:17:34;98526.41;;;1.45;75.17
41102;BME280;26845;50.190;19.178;2022-12-29T06:20:02;98516.29;;;1.48;75.61
41102;BME280;26845;50.190;19.178;2022-12-29T06:22:29;98516.08;;;1.54;75.57
41102;BME280;26845;50.190;19.178;2022-12-29T06:24:57;98501.56;;;1.59;75.44
41102;BME280;26845;50.190;19.178;2022-12-29T06:27:24;98501.56;;;1.59;75.44
41102;BME280;26845;50.190;19.178;2022-12-29T06:29:52;98478.03;;;1.61;75.82
41102;BME280;26845;50.190;19.178;2022-12-29T06:32:19;98478.03;;;1.61;75.82
41102;BME280;26845;50.190;19.178;2022-12-29T06:34:46;98480.23;;;1.64;75.85
41102;BME280;26845;50.190;19.178;2022-12-29T06:37:13;98475.84;;;1.60;75.78
41102;BME280;26845;50.190;19.178;2022-12-29T06:39:48;98477.48;;;1.61;76.12
41102;BME280;26845;50.190;19.178;2022-12-29T06:42:15;98475.57;;;1.64;76.17
41102;BME280;26845;50.190;19.178;2022-12-29T06:44:42;98480.29;;;1.79;76.31
41102;BME280;26845;50.190;19.178;2022-12-29T06:47:09;98480.29;;;1.79;76.31
41102;BME280;26845;50.190;19.178;2022-12-29T06:49:36;98489.11;;;1.86;76.39
41102;BME280;26845;50.190;19.178;2022-12-29T06:52:03;98491.32;;;1.92;76.39
41102;BME280;26845;50.190;19.178;2022-12-29T06:54:31;98477.63;;;1.94;76.51
41102;BME280;26845;50.190;19.178;2022-12-29T06:56:58;98482.88;;;2.09;76.61
41102;BME280;26845;50.190;19.178;2022-12-29T06:59:26;98486.74;;;2.18;76.68
41102;BME280;26845;50.190;19.178;2022-12-29T07:01:53;98492.55;;;2.32;76.61
41102;BME280;26845;50.190;19.178;2022-12-29T07:04:20;98496.72;;;2.60;76.64
41102;BME280;26845;50.190;19.178;2022-12-29T07:06:48;98496.72;;;2.60;76.64
41102;BME280;26845;50.190;19.178;2022-12-29T07:09:15;98493.45;;;2.91;76.29
41102;BME280;26845;50.190;19.178;2022-12-29T07:11:42;98495.36;;;3.01;76.43
41102;BME280;26845;50.190;19.178;2022-12-29T07:14:10;98495.36;;;3.01;76.43
41102;BME280;26845;50.190;19.178;2022-12-29T07:16:38;98489.05;;;3.08;76.38
41102;BME280;26845;50.190;19.178;2022-12-29T07:19:06;98481.90;;;3.14;76.47
41102;BME280;26845;50.190;19.178;2022-12-29T07:21:33;98485.75;;;3.16;76.31
41102;BME280;26845;50.190;19.178;2022-12-29T07:24:00;98481.08;;;3.14;76.25
41102;BME280;26845;50.190;19.178;2022-12-29T07:26:27;98472.84;;;3.11;76.27
41102;BME280;26845;50.190;19.178;2022-12-29T07:28:54;98467.34;;;3.11;76.34
41102;BME280;26845;50.190;19.178;2022-12-29T07:31:22;98474.77;;;3.13;76.37
41102;BME280;26845;50.190;19.178;2022-12-29T07:33:50;98480.27;;;3.16;76.34
41102;BME280;26845;50.190;19.178;2022-12-29T07:36:17;98486.28;;;3.21;76.23
41102;BME280;26845;50.190;19.178;2022-12-29T07:38:44;98482.98;;;3.24;76.17
41102;BME280;26845;50.190;19.178;2022-12-29T07:41:11;98488.77;;;3.27;76.27
41102;BME280;26845;50.190;19.178;2022-12-29T07:43:37;98493.97;;;3.31;76.22
41102;BME280;26845;50.190;19.178;2022-12-29T07:46:04;98491.22;;;3.36;76.19
41102;BME280;26845;50.190;19.178;2022-12-29T07:48:31;98494.22;;;3.43;76.16
41102;BME280;26845;50.190;19.178;2022-12-29T07:51:00;98495.59;;;3.48;76.30
41102;BME280;26845;50.190;19.178;2022-12-29T07:53:27;98499.70;;;3.50;76.21
41102;BME280;26845;50.190;19.178;2022-12-29T07:55:54;98493.92;;;3.49;76.06
41102;BME280;26845;50.190;19.178;2022-12-29T07:58:21;98502.72;;;3.49;76.03
41102;BME280;26845;50.190;19.178;2022-12-29T08:00:53;98511.52;;;3.48;76.03
41102;BME280;26845;50.190;19.178;2022-12-29T08:03:21;98504.65;;;3.51;76.21
41102;BME280;26845;50.190;19.178;2022-12-29T08:05:54;98506.02;;;3.51;76.05
41102;BME280;26845;50.190;19.178;2022-12-29T08:08:23;98507.14;;;3.47;76.02
41102;BME280;26845;50.190;19.178;2022-12-29T08:10:50;98505.73;;;3.55;76.26
41102;BME280;26845;50.190;19.178;2022-12-29T08:13:17;98512.33;;;3.59;76.35
41102;BME280;26845;50.190;19.178;2022-12-29T08:15:44;98505.16;;;3.68;76.35
41102;BME280;26845;50.190;19.178;2022-12-29T08:18:14;98506.78;;;3.77;76.33
41102;BME280;26845;50.190;19.178;2022-12-29T08:20:44;98501.76;;;3.97;76.45
41102;BME280;26845;50.190;19.178;2022-12-29T08:23:11;98512.98;;;4.11;75.95
41102;BME280;26845;50.190;19.178;2022-12-29T08:25:37;98498.34;;;4.20;76.21
41102;BME280;26845;50.190;19.178;2022-12-29T08:28:06;98497.50;;;4.27;76.27
41102;BME280;26845;50.190;19.178;2022-12-29T08:30:38;98497.73;;;4.34;76.27
41102;BME280;26845;50.190;19.178;2022-12-29T08:33:09;98500.48;;;4.34;76.13
41102;BME280;26845;50.190;19.178;2022-12-29T08:35:38;98494.73;;;4.33;76.00
41102;BME280;26845;50.190;19.178;2022-12-29T08:38:08;98497.75;;;4.31;76.12
41102;BME280;26845;50.190;19.178;2022-12-29T08:40:41;98494.42;;;4.34;76.13
41102;BME280;26845;50.190;19.178;2022-12-29T08:43:17;98495.23;;;4.37;76.12
41102;BME280;26845;50.190;19.178;2022-12-29T08:45:44;98492.22;;;4.39;76.00
41102;BME280;26845;50.190;19.178;2022-12-29T08:48:12;98487.78;;;4.40;76.07
41102;BME280;26845;50.190;19.178;2022-12-29T08:50:39;98488.03;;;4.44;76.12
41102;BME280;26845;50.190;19.178;2022-12-29T08:53:07;98488.89;;;4.42;75.85
41102;BME280;26845;50.190;19.178;2022-12-29T08:55:34;98488.36;;;4.37;76.12
41102;BME280;26845;50.190;19.178;2022-12-29T08:58:03;98487.22;;;4.41;76.23
41102;BME280;26845;50.190;19.178;2022-12-29T09:00:31;98491.06;;;4.47;76.20
41102;BME280;26845;50.190;19.178;2022-12-29T09:02:58;98498.44;;;4.52;76.12
41102;BME280;26845;50.190;19.178;2022-12-29T09:05:25;98503.64;;;4.61;75.97
41102;BME280;26845;50.190;19.178;2022-12-29T09:07:52;98501.33;;;4.76;76.16
41102;BME280;26845;50.190;19.178;2022-12-29T09:10:20;98509.23;;;4.88;76.12
41102;BME280;26845;50.190;19.178;2022-12-29T09:12:49;98504.16;;;5.00;74.91
41102;BME280;26845;50.190;19.178;2022-12-29T09:15:17;98502.41;;;5.12;75.33
41102;BME280;26845;50.190;19.178;2022-12-29T09:17:44;98508.13;;;5.21;75.63
41102;BME280;26845;50.190;19.178;2022-12-29T09:20:17;98498.40;;;5.31;74.83
41102;BME280;26845;50.190;19.178;2022-12-29T09:22:45;98494.45;;;5.39;74.24
41102;BME280;26845;50.190;19.178;2022-12-29T09:25:15;98485.80;;;5.51;75.34
41102;BME280;26845;50.190;19.178;2022-12-29T09:27:43;98478.29;;;5.57;74.30
41102;BME280;26845;50.190;19.178;2022-12-29T09:30:11;98477.05;;;5.71;75.31
41102;BME280;26845;50.190;19.178;2022-12-29T09:32:39;98477.73;;;5.84;74.35
41102;BME280;26845;50.190;19.178;2022-12-29T09:35:06;98476.19;;;5.99;74.88
41102;BME280;26845;50.190;19.178;2022-12-29T09:37:33;98480.27;;;6.04;73.93
41102;BME280;26845;50.190;19.178;2022-12-29T09:40:00;98473.56;;;6.11;73.07
41102;BME280;26845;50.190;19.178;2022-12-29T09:42:32;98483.09;;;6.21;73.98
41102;BME280;26845;50.190;19.178;2022-12-29T09:45:18;98479.72;;;6.26;71.87
41102;BME280;26845;50.190;19.178;2022-12-29T09:47:48;98471.25;;;6.39;72.80
41102;BME280;26845;50.190;19.178;2022-12-29T09:50:30;98460.63;;;6.49;70.69
41102;BME280;26845;50.190;19.178;2022-12-29T09:53:15;98470.27;;;6.68;73.34
41102;BME280;26845;50.190;19.178;2022-12-29T09:55:58;98466.09;;;6.89;73.30
41102;BME280;26845;50.190;19.178;2022-12-29T09:58:47;98476.99;;;6.97;72.29
41102;BME280;26845;50.190;19.178;2022-12-29T10:03:59;98459.86;;;7.14;71.08
41102;BME280;26845;50.190;19.178;2022-12-29T10:18:37;98455.71;;;7.30;72.00
41102;BME280;26845;50.190;19.178;2022-12-29T10:21:29;98451.52;;;7.33;72.43
41102;BME280;26845;50.190;19.178;2022-12-29T10:23:48;98449.28;;;7.35;71.64
41102;BME280;26845;50.190;19.178;2022-12-29T10:26:23;98444.00;;;7.36;72.38
41102;BME280;26845;50.190;19.178;2022-12-29T10:28:55;98446.16;;;7.39;71.03
41102;BME280;26845;50.190;19.178;2022-12-29T10:32:09;98448.63;;;7.40;71.79
41102;BME280;26845;50.190;19.178;2022-12-29T10:34:21;98455.13;;;7.47;71.71
41102;BME280;26845;50.190;19.178;2022-12-29T10:36:54;98450.53;;;7.56;71.77
41102;BME280;26845;50.190;19.178;2022-12-29T10:39:50;98443.15;;;7.65;72.44
41102;BME280;26845;50.190;19.178;2022-12-29T10:42:43;98441.83;;;7.77;71.65
41102;BME280;26845;50.190;19.178;2022-12-29T10:45:13;98442.34;;;7.79;70.59
41102;BME280;26845;50.190;19.178;2022-12-29T10:47:47;98442.00;;;7.83;70.73
41102;BME280;26845;50.190;19.178;2022-12-29T10:50:16;98440.05;;;7.83;71.41
41102;BME280;26845;50.190;19.178;2022-12-29T10:52:43;98438.77;;;7.92;71.91
41102;BME280;26845;50.190;19.178;2022-12-29T10:55:22;98440.96;;;8.06;71.98
41102;BME280;26845;50.190;19.178;2022-12-29T10:57:56;98436.27;;;8.18;71.57
41102;BME280;26845;50.190;19.178;2022-12-29T11:00:26;98435.30;;;8.25;69.65
41102;BME280;26845;50.190;19.178;2022-12-29T11:03:08;98441.52;;;8.31;71.10
41102;BME280;26845;50.190;19.178;2022-12-29T11:08:46;98441.98;;;8.49;68.76
41102;BME280;26845;50.190;19.178;2022-12-29T11:11:16;98431.61;;;8.55;68.91
41102;BME280;26845;50.190;19.178;2022-12-29T11:13:49;98440.38;;;8.60;69.86
41102;BME280;26845;50.190;19.178;2022-12-29T11:16:28;98436.77;;;8.59;67.64
41102;BME280;26845;50.190;19.178;2022-12-29T11:19:01;98439.23;;;8.61;68.46
41102;BME280;26845;50.190;19.178;2022-12-29T11:21:36;98442.81;;;8.61;69.98
41102;BME280;26845;50.190;19.178;2022-12-29T11:24:29;98442.77;;;8.64;69.52
41102;BME280;26845;50.190;19.178;2022-12-29T11:26:55;98442.70;;;8.66;69.67
41102;BME280;26845;50.190;19.178;2022-12-29T11:29:39;98446.28;;;8.67;68.89
41102;BME280;26845;50.190;19.178;2022-12-29T11:32:16;98449.30;;;8.68;68.06
41102;BME280;26845;50.190;19.178;2022-12-29T11:34:46;98452.45;;;8.64;68.01
41102;BME280;26845;50.190;19.178;2022-12-29T11:37:19;98446.10;;;8.63;69.65
41102;BME280;26845;50.190;19.178;2022-12-29T11:42:37;98443.22;;;8.68;67.90
41102;BME280;26845;50.190;19.178;2022-12-29T11:45:20;98436.23;;;8.71;69.17
41102;BME280;26845;50.190;19.178;2022-12-29T11:47:57;98437.75;;;8.77;67.08
41102;BME280;26845;50.190;19.178;2022-12-29T11:50:33;98420.16;;;8.82;68.24
41102;BME280;26845;50.190;19.178;2022-12-29T11:53:01;98429.98;;;8.88;69.57
41102;BME280;26845;50.190;19.178;2022-12-29T11:55:31;98436.55;;;8.92;66.90
41102;BME280;26845;50.190;19.178;2022-12-29T11:58:00;98431.00;;;8.92;67.94
41102;BME280;26845;50.190;19.178;2022-12-29T12:00:31;98422.93;;;8.93;67.36
41102;BME280;26845;50.190;19.178;2022-12-29T12:03:01;98427.36;;;8.94;68.96
41102;BME280;26845;50.190;19.178;2022-12-29T12:11:19;98431.42;;;8.96;68.92
41102;BME280;26845;50.190;19.178;2022-12-29T12:13:58;98449.90;;;9.01;66.04
41102;BME280;26845;50.190;19.178;2022-12-29T12:16:47;98435.52;;;8.99;68.45
41102;BME280;26845;50.190;19.178;2022-12-29T12:19:43;98434.14;;;8.99;66.40
41102;BME280;26845;50.190;19.178;2022-12-29T12:22:31;98434.41;;;9.00;67.61
41102;BME280;26845;50.190;19.178;2022-12-29T12:30:40;98437.30;;;8.95;66.70
41102;BME280;26845;50.190;19.178;2022-12-29T12:33:41;98443.48;;;8.92;66.93
41102;BME280;26845;50.190;19.178;2022-12-29T12:39:26;98441.13;;;8.96;68.09
41102;BME280;26845;50.190;19.178;2022-12-29T12:50:50;98437.93;;;9.57;67.34
41102;BME280;26845;50.190;19.178;2022-12-29T12:53:34;98449.16;;;9.52;64.34
41102;BME280;26845;50.190;19.178;2022-12-29T13:04:51;98433.17;;;9.37;66.30
41102;BME280;26845;50.190;19.178;2022-12-29T13:16:07;98409.45;;;9.11;66.74
41102;BME280;26845;50.190;19.178;2022-12-29T13:30:09;98428.44;;;9.38;67.24
41102;BME280;26845;50.190;19.178;2022-12-29T13:38:46;98424.10;;;9.34;66.88
41102;BME280;26845;50.190;19.178;2022-12-29T13:41:27;98420.01;;;9.32;65.76
41102;BME280;26845;50.190;19.178;2022-12-29T13:44:01;98430.66;;;9.27;66.18
41102;BME280;26845;50.190;19.178;2022-12-29T13:46:33;98422.46;;;9.22;66.05
41102;BME280;26845;50.190;19.178;2022-12-29T13:49:08;98421.93;;;9.11;65.67
41102;BME280;26845;50.190;19.178;2022-12-29T13:51:57;98416.17;;;9.08;66.51
41102;BME280;26845;50.190;19.178;2022-12-29T13:57:31;98405.78;;;9.02;67.27
41102;BME280;26845;50.190;19.178;2022-12-29T14:00:22;98411.72;;;8.98;66.29
41102;BME280;26845;50.190;19.178;2022-12-29T14:06:25;98425.97;;;8.83;67.20
41102;BME280;26845;50.190;19.178;2022-12-29T14:09:00;98419.80;;;8.74;66.33
41102;BME280;26845;50.190;19.178;2022-12-29T14:11:35;98416.38;;;8.66;66.72
41102;BME280;26845;50.190;19.178;2022-12-29T14:14:20;98422.61;;;8.61;66.46
41102;BME280;26845;50.190;19.178;2022-12-29T14:16:53;98416.42;;;8.52;66.80
41102;BME280;26845;50.190;19.178;2022-12-29T14:19:38;98417.69;;;8.46;66.42
41102;BME280;26845;50.190;19.178;2022-12-29T14:22:04;98416.98;;;8.41;66.00
41102;BME280;26845;50.190;19.178;2022-12-29T14:24:44;98413.15;;;8.37;66.16
41102;BME280;26845;50.190;19.178;2022-12-29T14:29:47;98415.78;;;8.30;67.46
41102;BME280;26845;50.190;19.178;2022-12-29T14:35:31;98412.53;;;8.28;67.45
41102;BME280;26845;50.190;19.178;2022-12-29T14:37:50;98417.22;;;8.28;67.46
41102;BME280;26845;50.190;19.178;2022-12-29T14:40:25;98418.25;;;8.32;67.64
41102;BME280;26845;50.190;19.178;2022-12-29T14:42:56;98421.95;;;8.27;67.81
41102;BME280;26845;50.190;19.178;2022-12-29T14:45:29;98418.94;;;8.26;67.61
41102;BME280;26845;50.190;19.178;2022-12-29T14:47:59;98417.55;;;8.26;67.52
41102;BME280;26845;50.190;19.178;2022-12-29T14:50:41;98410.73;;;8.21;67.75
41102;BME280;26845;50.190;19.178;2022-12-29T14:56:20;98417.29;;;8.00;67.83
41102;BME280;26845;50.190;19.178;2022-12-29T14:58:57;98409.00;;;7.86;67.74
41102;BME280;26845;50.190;19.178;2022-12-29T15:01:47;98418.16;;;7.71;68.14
41102;BME280;26845;50.190;19.178;2022-12-29T15:04:20;98412.85;;;7.60;68.25
41102;BME280;26845;50.190;19.178;2022-12-29T15:06:50;98423.19;;;7.55;68.32
41102;BME280;26845;50.190;19.178;2022-12-29T15:09:33;98414.17;;;7.49;68.34
41102;BME280;26845;50.190;19.178;2022-12-29T15:14:59;98420.45;;;7.38;68.17
41102;BME280;26845;50.190;19.178;2022-12-29T15:17:31;98411.14;;;7.34;68.52
41102;BME280;26845;50.190;19.178;2022-12-29T15:20:03;98411.73;;;7.31;68.46
41102;BME280;26845;50.190;19.178;2022-12-29T15:22:31;98409.69;;;7.23;68.44
41102;BME280;26845;50.190;19.178;2022-12-29T15:24:58;98419.09;;;7.22;68.59
41102;BME280;26845;50.190;19.178;2022-12-29T15:27:26;98421.36;;;7.20;68.60
41102;BME280;26845;50.190;19.178;2022-12-29T15:30:02;98419.98;;;7.20;68.60
41102;BME280;26845;50.190;19.178;2022-12-29T15:32:40;98425.84;;;7.16;68.65
41102;BME280;26845;50.190;19.178;2022-12-29T15:35:32;98420.67;;;7.12;68.86
41102;BME280;26845;50.190;19.178;2022-12-29T15:38:20;98427.09;;;7.07;68.86
41102;BME280;26845;50.190;19.178;2022-12-29T15:40:46;98424.13;;;7.04;69.05